sensor_id;sensor_type;location;lat;lon;timestamp;P1;durP1;ratioP1;P2;durP2;ratioP2
19219;SDS011;9744;49.364;7.484;2024-03-02T00:00:50;5.93;;;3.33;;
19219;SDS011;9744;49.364;7.484;2024-03-02T00:03:18;5.50;;;3.88;;
19219;SDS011;9744;49.364;7.484;2024-03-02T00:05:49;5.00;;;3.42;;
19219;SDS011;9744;49.364;7.484;2024-03-02T00:08:23;5.90;;;3.92;;
19219;SDS011;9744;49.364;7.484;2024-03-02T00:10:58;7.18;;;4.18;;
19219;SDS011;9744;49.364;7.484;2024-03-02T00:13:28;4.88;;;3.78;;
19219;SDS011;9744;49.364;7.484;2024-03-02T00:15:57;7.13;;;4.03;;
19219;SDS011;9744;49.364;7.484;2024-03-02T00:18:25;8.57;;;3.72;;
19219;SDS011;9744;49.364;7.484;2024-03-02T00:20:57;4.63;;;3.40;;
19219;SDS011;9744;49.364;7.484;2024-03-02T00:23:27;6.10;;;3.33;;
19219;SDS011;9744;49.364;7.484;2024-03-02T00:25:58;3.75;;;3.10;;
19219;SDS011;9744;49.364;7.484;2024-03-02T00:28:26;6.13;;;3.63;;
19219;SDS011;9744;49.364;7.484;2024-03-02T00:30:59;4.03;;;3.42;;
19219;SDS011;9744;49.364;7.484;2024-03-02T00:33:30;5.88;;;3.30;;
19219;SDS011;9744;49.364;7.484;2024-03-02T00:35:59;5.45;;;3.42;;
19219;SDS011;9744;49.364;7.484;2024-03-02T00:38:26;5.85;;;3.83;;
19219;SDS011;9744;49.364;7.484;2024-03-02T00:40:54;4.60;;;3.38;;
19219;SDS011;9744;49.364;7.484;2024-03-02T00:46:15;5.93;;;3.35;;
19219;SDS011;9744;49.364;7.484;2024-03-02T00:48:48;6.65;;;3.63;;
19219;SDS011;9744;49.364;7.484;2024-03-02T00:51:19;4.57;;;3.40;;
19219;SDS011;9744;49.364;7.484;2024-03-02T00:53:48;5.65;;;3.35;;
19219;SDS011;9744;49.364;7.484;2024-03-02T00:56:17;5.93;;;3.63;;
19219;SDS011;9744;49.364;7.484;2024-03-02T00:58:45;4.40;;;3.42;;
19219;SDS011;9744;49.364;7.484;2024-03-02T01:01:12;6.47;;;3.58;;
19219;SDS011;9744;49.364;7.484;2024-03-02T01:03:41;4.65;;;3.55;;
19219;SDS011;9744;49.364;7.484;2024-03-02T01:06:08;5.30;;;3.30;;
19219;SDS011;9744;49.364;7.484;2024-03-02T01:08:36;4.40;;;3.35;;
19219;SDS011;9744;49.364;7.484;2024-03-02T01:11:04;5.47;;;3.17;;
19219;SDS011;9744;49.364;7.484;2024-03-02T01:13:33;4.88;;;3.20;;
19219;SDS011;9744;49.364;7.484;2024-03-02T01:16:04;7.22;;;3.25;;
19219;SDS011;9744;49.364;7.484;2024-03-02T01:18:31;6.78;;;3.67;;
19219;SDS011;9744;49.364;7.484;2024-03-02T01:20:59;5.85;;;3.50;;
19219;SDS011;9744;49.364;7.484;2024-03-02T01:23:27;7.38;;;3.60;;
19219;SDS011;9744;49.364;7.484;2024-03-02T01:25:54;6.28;;;3.30;;
19219;SDS011;9744;49.364;7.484;2024-03-02T01:28:21;4.40;;;3.40;;
19219;SDS011;9744;49.364;7.484;2024-03-02T01:30:50;5.60;;;3.58;;
19219;SDS011;9744;49.364;7.484;2024-03-02T01:33:17;5.97;;;3.78;;
19219;SDS011;9744;49.364;7.484;2024-03-02T01:35:46;4.90;;;3.45;;
19219;SDS011;9744;49.364;7.484;2024-03-02T01:38:13;5.78;;;3.40;;
19219;SDS011;9744;49.364;7.484;2024-03-02T01:40:41;6.43;;;3.40;;
19219;SDS011;9744;49.364;7.484;2024-03-02T01:43:09;8.02;;;3.70;;
19219;SDS011;9744;49.364;7.484;2024-03-02T01:45:37;6.38;;;3.58;;
19219;SDS011;9744;49.364;7.484;2024-03-02T01:48:06;4.53;;;3.10;;
19219;SDS011;9744;49.364;7.484;2024-03-02T01:50:34;4.85;;;3.40;;
19219;SDS011;9744;49.364;7.484;2024-03-02T01:53:01;7.68;;;3.65;;
19219;SDS011;9744;49.364;7.484;2024-03-02T01:55:29;4.35;;;3.08;;
19219;SDS011;9744;49.364;7.484;2024-03-02T01:57:56;6.00;;;3.47;;
19219;SDS011;9744;49.364;7.484;2024-03-02T02:00:24;3.92;;;2.80;;
19219;SDS011;9744;49.364;7.484;2024-03-02T02:02:52;8.57;;;3.50;;
19219;SDS011;9744;49.364;7.484;2024-03-02T02:05:21;6.47;;;3.47;;
19219;SDS011;9744;49.364;7.484;2024-03-02T02:07:49;4.28;;;3.28;;
19219;SDS011;9744;49.364;7.484;2024-03-02T02:10:16;7.28;;;3.03;;
19219;SDS011;9744;49.364;7.484;2024-03-02T02:12:44;6.10;;;3.25;;
19219;SDS011;9744;49.364;7.484;2024-03-02T02:15:21;7.13;;;3.55;;
19219;SDS011;9744;49.364;7.484;2024-03-02T02:17:50;5.88;;;3.20;;
19219;SDS011;9744;49.364;7.484;2024-03-02T02:20:18;3.95;;;3.13;;
19219;SDS011;9744;49.364;7.484;2024-03-02T02:22:55;4.68;;;3.40;;
19219;SDS011;9744;49.364;7.484;2024-03-02T02:25:23;6.15;;;3.60;;
19219;SDS011;9744;49.364;7.484;2024-03-02T02:27:51;7.15;;;3.03;;
19219;SDS011;9744;49.364;7.484;2024-03-02T02:30:21;5.47;;;3.70;;
19219;SDS011;9744;49.364;7.484;2024-03-02T02:32:50;11.18;;;3.30;;
19219;SDS011;9744;49.364;7.484;2024-03-02T02:35:18;5.13;;;3.08;;
19219;SDS011;9744;49.364;7.484;2024-03-02T02:37:46;4.63;;;3.83;;
19219;SDS011;9744;49.364;7.484;2024-03-02T02:40:16;6.50;;;3.65;;
19219;SDS011;9744;49.364;7.484;2024-03-02T02:42:45;6.55;;;3.83;;
19219;SDS011;9744;49.364;7.484;2024-03-02T02:45:12;5.50;;;3.83;;
19219;SDS011;9744;49.364;7.484;2024-03-02T02:47:40;7.78;;;4.25;;
19219;SDS011;9744;49.364;7.484;2024-03-02T02:50:09;5.03;;;3.78;;
19219;SDS011;9744;49.364;7.484;2024-03-02T02:52:38;5.72;;;3.90;;
19219;SDS011;9744;49.364;7.484;2024-03-02T02:55:07;6.20;;;4.05;;
19219;SDS011;9744;49.364;7.484;2024-03-02T02:57:36;6.68;;;3.95;;
19219;SDS011;9744;49.364;7.484;2024-03-02T03:00:06;4.80;;;3.65;;
19219;SDS011;9744;49.364;7.484;2024-03-02T03:02:39;5.72;;;3.70;;
19219;SDS011;9744;49.364;7.484;2024-03-02T03:05:08;6.88;;;3.80;;
19219;SDS011;9744;49.364;7.484;2024-03-02T03:07:36;5.70;;;3.75;;
19219;SDS011;9744;49.364;7.484;2024-03-02T03:10:05;6.35;;;3.90;;
19219;SDS011;9744;49.364;7.484;2024-03-02T03:12:33;5.60;;;3.63;;
19219;SDS011;9744;49.364;7.484;2024-03-02T03:15:02;5.50;;;3.90;;
19219;SDS011;9744;49.364;7.484;2024-03-02T03:17:32;8.52;;;4.10;;
19219;SDS011;9744;49.364;7.484;2024-03-02T03:19:59;6.10;;;4.38;;
19219;SDS011;9744;49.364;7.484;2024-03-02T03:22:28;6.20;;;4.13;;
19219;SDS011;9744;49.364;7.484;2024-03-02T03:24:55;9.27;;;4.15;;
19219;SDS011;9744;49.364;7.484;2024-03-02T03:27:23;8.93;;;4.22;;
19219;SDS011;9744;49.364;7.484;2024-03-02T03:29:50;8.32;;;4.25;;
19219;SDS011;9744;49.364;7.484;2024-03-02T03:32:19;8.40;;;4.63;;
19219;SDS011;9744;49.364;7.484;2024-03-02T03:34:49;5.35;;;4.03;;
19219;SDS011;9744;49.364;7.484;2024-03-02T03:37:16;7.55;;;4.70;;
19219;SDS011;9744;49.364;7.484;2024-03-02T03:39:46;5.93;;;4.40;;
19219;SDS011;9744;49.364;7.484;2024-03-02T03:42:13;8.60;;;4.13;;
19219;SDS011;9744;49.364;7.484;2024-03-02T03:44:41;5.30;;;4.00;;
19219;SDS011;9744;49.364;7.484;2024-03-02T03:47:09;6.78;;;4.18;;
19219;SDS011;9744;49.364;7.484;2024-03-02T03:49:38;6.72;;;4.35;;
19219;SDS011;9744;49.364;7.484;2024-03-02T03:52:05;6.25;;;4.28;;
19219;SDS011;9744;49.364;7.484;2024-03-02T03:54:33;9.70;;;4.38;;
19219;SDS011;9744;49.364;7.484;2024-03-02T03:57:04;6.40;;;4.32;;
19219;SDS011;9744;49.364;7.484;2024-03-02T03:59:32;6.72;;;4.00;;
19219;SDS011;9744;49.364;7.484;2024-03-02T04:01:59;11.30;;;4.68;;
19219;SDS011;9744;49.364;7.484;2024-03-02T04:04:28;6.38;;;4.22;;
19219;SDS011;9744;49.364;7.484;2024-03-02T04:06:58;8.20;;;4.95;;
19219;SDS011;9744;49.364;7.484;2024-03-02T04:09:25;6.35;;;4.43;;
19219;SDS011;9744;49.364;7.484;2024-03-02T04:11:53;7.53;;;4.05;;
19219;SDS011;9744;49.364;7.484;2024-03-02T04:14:21;6.05;;;4.35;;
19219;SDS011;9744;49.364;7.484;2024-03-02T04:16:49;9.48;;;4.43;;
19219;SDS011;9744;49.364;7.484;2024-03-02T04:19:17;6.70;;;4.82;;
19219;SDS011;9744;49.364;7.484;2024-03-02T04:21:45;9.95;;;5.13;;
19219;SDS011;9744;49.364;7.484;2024-03-02T04:24:15;7.68;;;4.82;;
19219;SDS011;9744;49.364;7.484;2024-03-02T04:26:42;7.80;;;4.97;;
19219;SDS011;9744;49.364;7.484;2024-03-02T04:29:11;9.32;;;5.22;;
19219;SDS011;9744;49.364;7.484;2024-03-02T04:31:38;10.27;;;5.90;;
19219;SDS011;9744;49.364;7.484;2024-03-02T04:34:06;7.22;;;5.05;;
19219;SDS011;9744;49.364;7.484;2024-03-02T04:36:35;7.72;;;4.93;;
19219;SDS011;9744;49.364;7.484;2024-03-02T04:39:02;8.80;;;5.70;;
19219;SDS011;9744;49.364;7.484;2024-03-02T04:41:32;10.23;;;5.25;;
19219;SDS011;9744;49.364;7.484;2024-03-02T04:43:59;14.48;;;5.57;;
19219;SDS011;9744;49.364;7.484;2024-03-02T04:46:26;9.98;;;5.25;;
19219;SDS011;9744;49.364;7.484;2024-03-02T04:48:54;12.02;;;5.70;;
19219;SDS011;9744;49.364;7.484;2024-03-02T04:51:22;9.75;;;5.72;;
19219;SDS011;9744;49.364;7.484;2024-03-02T04:53:49;12.73;;;5.55;;
19219;SDS011;9744;49.364;7.484;2024-03-02T04:56:17;12.40;;;5.47;;
19219;SDS011;9744;49.364;7.484;2024-03-02T04:59:04;8.88;;;5.60;;
19219;SDS011;9744;49.364;7.484;2024-03-02T05:01:31;7.90;;;5.57;;
19219;SDS011;9744;49.364;7.484;2024-03-02T05:03:59;7.90;;;5.25;;
19219;SDS011;9744;49.364;7.484;2024-03-02T05:06:27;8.75;;;5.70;;
19219;SDS011;9744;49.364;7.484;2024-03-02T05:08:55;9.48;;;5.82;;
19219;SDS011;9744;49.364;7.484;2024-03-02T05:11:25;7.97;;;5.40;;
19219;SDS011;9744;49.364;7.484;2024-03-02T05:14:17;9.57;;;5.72;;
19219;SDS011;9744;49.364;7.484;2024-03-02T05:16:45;9.27;;;5.60;;
19219;SDS011;9744;49.364;7.484;2024-03-02T05:19:14;9.27;;;6.20;;
19219;SDS011;9744;49.364;7.484;2024-03-02T05:21:42;8.43;;;5.40;;
19219;SDS011;9744;49.364;7.484;2024-03-02T05:24:09;7.35;;;5.10;;
19219;SDS011;9744;49.364;7.484;2024-03-02T05:26:37;7.93;;;4.80;;
19219;SDS011;9744;49.364;7.484;2024-03-02T05:29:04;7.80;;;5.40;;
19219;SDS011;9744;49.364;7.484;2024-03-02T05:31:34;6.10;;;4.35;;
19219;SDS011;9744;49.364;7.484;2024-03-02T05:34:02;7.93;;;4.93;;
19219;SDS011;9744;49.364;7.484;2024-03-02T05:36:30;8.45;;;5.20;;
19219;SDS011;9744;49.364;7.484;2024-03-02T05:38:58;13.43;;;7.57;;
19219;SDS011;9744;49.364;7.484;2024-03-02T05:41:25;14.05;;;7.40;;
19219;SDS011;9744;49.364;7.484;2024-03-02T05:43:55;8.85;;;5.88;;
19219;SDS011;9744;49.364;7.484;2024-03-02T05:46:23;7.88;;;6.00;;
19219;SDS011;9744;49.364;7.484;2024-03-02T05:48:53;10.02;;;5.68;;
19219;SDS011;9744;49.364;7.484;2024-03-02T05:53:54;7.55;;;5.05;;
19219;SDS011;9744;49.364;7.484;2024-03-02T05:56:21;8.65;;;5.00;;
19219;SDS011;9744;49.364;7.484;2024-03-02T05:58:49;9.35;;;5.10;;
19219;SDS011;9744;49.364;7.484;2024-03-02T06:01:32;8.18;;;4.80;;
19219;SDS011;9744;49.364;7.484;2024-03-02T06:04:01;9.30;;;5.22;;
19219;SDS011;9744;49.364;7.484;2024-03-02T06:06:40;9.10;;;5.43;;
19219;SDS011;9744;49.364;7.484;2024-03-02T06:09:08;7.78;;;5.13;;
19219;SDS011;9744;49.364;7.484;2024-03-02T06:11:38;7.32;;;4.80;;
19219;SDS011;9744;49.364;7.484;2024-03-02T06:14:06;7.70;;;5.40;;
19219;SDS011;9744;49.364;7.484;2024-03-02T06:16:35;9.23;;;5.65;;
19219;SDS011;9744;49.364;7.484;2024-03-02T06:19:03;10.70;;;6.20;;
19219;SDS011;9744;49.364;7.484;2024-03-02T06:21:31;9.20;;;6.03;;
19219;SDS011;9744;49.364;7.484;2024-03-02T06:23:58;7.75;;;5.38;;
19219;SDS011;9744;49.364;7.484;2024-03-02T06:26:26;8.35;;;5.55;;
19219;SDS011;9744;49.364;7.484;2024-03-02T06:28:55;7.93;;;5.68;;
19219;SDS011;9744;49.364;7.484;2024-03-02T06:31:22;8.80;;;5.25;;
19219;SDS011;9744;49.364;7.484;2024-03-02T06:33:49;9.18;;;5.43;;
19219;SDS011;9744;49.364;7.484;2024-03-02T06:36:18;9.88;;;5.63;;
19219;SDS011;9744;49.364;7.484;2024-03-02T06:38:44;7.82;;;5.60;;
19219;SDS011;9744;49.364;7.484;2024-03-02T06:41:26;9.18;;;5.50;;
19219;SDS011;9744;49.364;7.484;2024-03-02T06:43:54;8.48;;;5.68;;
19219;SDS011;9744;49.364;7.484;2024-03-02T06:46:25;10.15;;;5.93;;
19219;SDS011;9744;49.364;7.484;2024-03-02T06:48:52;9.95;;;5.18;;
19219;SDS011;9744;49.364;7.484;2024-03-02T06:51:21;10.15;;;4.68;;
19219;SDS011;9744;49.364;7.484;2024-03-02T06:53:49;6.68;;;4.30;;
19219;SDS011;9744;49.364;7.484;2024-03-02T06:56:16;8.25;;;4.75;;
19219;SDS011;9744;49.364;7.484;2024-03-02T06:58:44;9.32;;;5.13;;
19219;SDS011;9744;49.364;7.484;2024-03-02T07:01:15;8.52;;;5.07;;
19219;SDS011;9744;49.364;7.484;2024-03-02T07:03:43;9.98;;;4.57;;
19219;SDS011;9744;49.364;7.484;2024-03-02T07:06:10;14.10;;;7.75;;
19219;SDS011;9744;49.364;7.484;2024-03-02T07:08:42;7.53;;;5.05;;
19219;SDS011;9744;49.364;7.484;2024-03-02T07:11:09;8.32;;;5.05;;
19219;SDS011;9744;49.364;7.484;2024-03-02T07:13:36;8.15;;;5.50;;
19219;SDS011;9744;49.364;7.484;2024-03-02T07:16:04;6.57;;;4.55;;
19219;SDS011;9744;49.364;7.484;2024-03-02T07:18:52;8.90;;;5.43;;
19219;SDS011;9744;49.364;7.484;2024-03-02T07:21:22;9.13;;;5.25;;
19219;SDS011;9744;49.364;7.484;2024-03-02T07:23:51;8.50;;;4.70;;
19219;SDS011;9744;49.364;7.484;2024-03-02T07:26:22;8.25;;;4.65;;
19219;SDS011;9744;49.364;7.484;2024-03-02T07:28:50;9.93;;;4.85;;
19219;SDS011;9744;49.364;7.484;2024-03-02T07:31:18;7.47;;;5.00;;
19219;SDS011;9744;49.364;7.484;2024-03-02T07:33:45;8.35;;;5.10;;
19219;SDS011;9744;49.364;7.484;2024-03-02T07:36:13;7.50;;;4.82;;
19219;SDS011;9744;49.364;7.484;2024-03-02T07:41:44;11.52;;;5.90;;
19219;SDS011;9744;49.364;7.484;2024-03-02T07:44:12;14.20;;;6.72;;
19219;SDS011;9744;49.364;7.484;2024-03-02T07:46:41;9.77;;;6.18;;
19219;SDS011;9744;49.364;7.484;2024-03-02T07:49:09;8.88;;;5.10;;
19219;SDS011;9744;49.364;7.484;2024-03-02T07:51:44;9.65;;;5.55;;
19219;SDS011;9744;49.364;7.484;2024-03-02T07:54:12;7.43;;;5.00;;
19219;SDS011;9744;49.364;7.484;2024-03-02T07:56:40;6.82;;;5.13;;
19219;SDS011;9744;49.364;7.484;2024-03-02T07:59:08;8.60;;;4.90;;
19219;SDS011;9744;49.364;7.484;2024-03-02T08:01:35;7.75;;;5.38;;
19219;SDS011;9744;49.364;7.484;2024-03-02T08:07:09;8.75;;;5.25;;
19219;SDS011;9744;49.364;7.484;2024-03-02T08:09:37;10.85;;;4.88;;
19219;SDS011;9744;49.364;7.484;2024-03-02T08:12:07;9.57;;;5.38;;
19219;SDS011;9744;49.364;7.484;2024-03-02T08:14:35;6.60;;;4.85;;
19219;SDS011;9744;49.364;7.484;2024-03-02T08:17:03;12.73;;;5.53;;
19219;SDS011;9744;49.364;7.484;2024-03-02T08:19:35;7.75;;;5.70;;
19219;SDS011;9744;49.364;7.484;2024-03-02T08:22:03;11.32;;;5.57;;
19219;SDS011;9744;49.364;7.484;2024-03-02T08:24:30;8.88;;;5.57;;
19219;SDS011;9744;49.364;7.484;2024-03-02T08:26:58;7.63;;;4.50;;
19219;SDS011;9744;49.364;7.484;2024-03-02T08:29:27;8.25;;;4.72;;
19219;SDS011;9744;49.364;7.484;2024-03-02T08:31:54;7.63;;;4.32;;
19219;SDS011;9744;49.364;7.484;2024-03-02T08:34:21;7.38;;;4.57;;
19219;SDS011;9744;49.364;7.484;2024-03-02T08:36:48;7.68;;;4.95;;
19219;SDS011;9744;49.364;7.484;2024-03-02T08:39:15;10.65;;;5.05;;
19219;SDS011;9744;49.364;7.484;2024-03-02T08:41:45;6.47;;;4.32;;
19219;SDS011;9744;49.364;7.484;2024-03-02T08:44:12;7.93;;;4.38;;
19219;SDS011;9744;49.364;7.484;2024-03-02T08:46:44;7.75;;;4.50;;
19219;SDS011;9744;49.364;7.484;2024-03-02T08:49:24;8.45;;;4.07;;
19219;SDS011;9744;49.364;7.484;2024-03-02T08:51:56;8.30;;;4.15;;
19219;SDS011;9744;49.364;7.484;2024-03-02T08:54:23;7.20;;;4.30;;
19219;SDS011;9744;49.364;7.484;2024-03-02T08:56:51;30.38;;;13.65;;
19219;SDS011;9744;49.364;7.484;2024-03-02T08:59:20;6.88;;;4.63;;
19219;SDS011;9744;49.364;7.484;2024-03-02T09:01:55;7.93;;;4.78;;
19219;SDS011;9744;49.364;7.484;2024-03-02T09:04:22;7.40;;;3.70;;
19219;SDS011;9744;49.364;7.484;2024-03-02T09:06:49;6.20;;;3.50;;
19219;SDS011;9744;49.364;7.484;2024-03-02T09:09:17;5.82;;;3.28;;
19219;SDS011;9744;49.364;7.484;2024-03-02T09:11:45;6.00;;;3.58;;
19219;SDS011;9744;49.364;7.484;2024-03-02T09:14:13;7.40;;;4.50;;
19219;SDS011;9744;49.364;7.484;2024-03-02T09:16:42;4.82;;;3.63;;
19219;SDS011;9744;49.364;7.484;2024-03-02T09:19:11;6.95;;;3.72;;
19219;SDS011;9744;49.364;7.484;2024-03-02T09:21:42;10.35;;;3.88;;
19219;SDS011;9744;49.364;7.484;2024-03-02T09:24:10;5.78;;;3.45;;
19219;SDS011;9744;49.364;7.484;2024-03-02T09:26:39;6.00;;;3.40;;
19219;SDS011;9744;49.364;7.484;2024-03-02T09:29:06;6.70;;;4.05;;
19219;SDS011;9744;49.364;7.484;2024-03-02T09:31:38;5.18;;;3.60;;
19219;SDS011;9744;49.364;7.484;2024-03-02T09:34:06;5.10;;;3.38;;
19219;SDS011;9744;49.364;7.484;2024-03-02T09:36:35;4.72;;;3.38;;
19219;SDS011;9744;49.364;7.484;2024-03-02T09:39:02;5.35;;;3.50;;
19219;SDS011;9744;49.364;7.484;2024-03-02T09:41:30;5.13;;;3.30;;
19219;SDS011;9744;49.364;7.484;2024-03-02T09:43:59;5.25;;;3.25;;
19219;SDS011;9744;49.364;7.484;2024-03-02T09:46:26;8.63;;;4.00;;
19219;SDS011;9744;49.364;7.484;2024-03-02T09:48:54;6.15;;;3.38;;
19219;SDS011;9744;49.364;7.484;2024-03-02T09:51:22;4.55;;;2.80;;
19219;SDS011;9744;49.364;7.484;2024-03-02T09:53:51;4.22;;;2.80;;
19219;SDS011;9744;49.364;7.484;2024-03-02T09:56:20;4.95;;;3.00;;
19219;SDS011;9744;49.364;7.484;2024-03-02T09:58:48;5.00;;;3.08;;
19219;SDS011;9744;49.364;7.484;2024-03-02T10:01:17;4.13;;;2.60;;
19219;SDS011;9744;49.364;7.484;2024-03-02T10:03:48;4.85;;;3.08;;
19219;SDS011;9744;49.364;7.484;2024-03-02T10:06:20;5.13;;;2.72;;
19219;SDS011;9744;49.364;7.484;2024-03-02T10:08:48;3.92;;;2.58;;
19219;SDS011;9744;49.364;7.484;2024-03-02T10:11:27;5.97;;;2.72;;
19219;SDS011;9744;49.364;7.484;2024-03-02T10:14:03;4.07;;;2.40;;
19219;SDS011;9744;49.364;7.484;2024-03-02T10:16:33;5.03;;;2.20;;
19219;SDS011;9744;49.364;7.484;2024-03-02T10:19:14;5.25;;;2.60;;
19219;SDS011;9744;49.364;7.484;2024-03-02T10:21:43;7.00;;;4.40;;
19219;SDS011;9744;49.364;7.484;2024-03-02T10:24:10;3.28;;;2.20;;
19219;SDS011;9744;49.364;7.484;2024-03-02T10:26:39;8.07;;;4.45;;
19219;SDS011;9744;49.364;7.484;2024-03-02T10:29:07;3.53;;;2.20;;
19219;SDS011;9744;49.364;7.484;2024-03-02T10:31:36;7.00;;;3.47;;
19219;SDS011;9744;49.364;7.484;2024-03-02T10:34:04;2.88;;;2.03;;
19219;SDS011;9744;49.364;7.484;2024-03-02T10:36:32;4.28;;;2.90;;
19219;SDS011;9744;49.364;7.484;2024-03-02T10:39:01;8.55;;;4.65;;
19219;SDS011;9744;49.364;7.484;2024-03-02T10:41:29;3.58;;;1.70;;
19219;SDS011;9744;49.364;7.484;2024-03-02T10:44:01;20.00;;;6.80;;
19219;SDS011;9744;49.364;7.484;2024-03-02T10:46:30;10.80;;;4.18;;
19219;SDS011;9744;49.364;7.484;2024-03-02T10:48:57;4.53;;;1.77;;
19219;SDS011;9744;49.364;7.484;2024-03-02T10:51:25;2.97;;;1.80;;
19219;SDS011;9744;49.364;7.484;2024-03-02T10:53:54;2.42;;;1.60;;
19219;SDS011;9744;49.364;7.484;2024-03-02T10:56:22;3.40;;;1.95;;
19219;SDS011;9744;49.364;7.484;2024-03-02T10:58:55;2.90;;;1.77;;
19219;SDS011;9744;49.364;7.484;2024-03-02T11:01:29;2.75;;;1.60;;
19219;SDS011;9744;49.364;7.484;2024-03-02T11:03:59;4.00;;;2.33;;
19219;SDS011;9744;49.364;7.484;2024-03-02T11:06:29;2.55;;;1.65;;
19219;SDS011;9744;49.364;7.484;2024-03-02T11:09:00;1.95;;;1.40;;
19219;SDS011;9744;49.364;7.484;2024-03-02T11:11:35;2.92;;;1.20;;
19219;SDS011;9744;49.364;7.484;2024-03-02T11:14:10;4.70;;;2.38;;
19219;SDS011;9744;49.364;7.484;2024-03-02T11:16:40;5.13;;;1.30;;
19219;SDS011;9744;49.364;7.484;2024-03-02T11:19:08;1.00;;;0.90;;
19219;SDS011;9744;49.364;7.484;2024-03-02T11:21:37;2.45;;;1.15;;
19219;SDS011;9744;49.364;7.484;2024-03-02T11:26:58;1.98;;;1.27;;
19219;SDS011;9744;49.364;7.484;2024-03-02T11:32:15;3.92;;;1.17;;
19219;SDS011;9744;49.364;7.484;2024-03-02T11:34:44;3.65;;;0.90;;
19219;SDS011;9744;49.364;7.484;2024-03-02T11:37:13;1.63;;;1.02;;
19219;SDS011;9744;49.364;7.484;2024-03-02T11:39:42;2.38;;;1.00;;
19219;SDS011;9744;49.364;7.484;2024-03-02T11:42:10;2.35;;;1.17;;
19219;SDS011;9744;49.364;7.484;2024-03-02T11:44:39;2.90;;;1.30;;
19219;SDS011;9744;49.364;7.484;2024-03-02T11:47:10;1.20;;;0.93;;
19219;SDS011;9744;49.364;7.484;2024-03-02T11:49:41;3.10;;;0.80;;
19219;SDS011;9744;49.364;7.484;2024-03-02T11:52:10;1.95;;;0.70;;
19219;SDS011;9744;49.364;7.484;2024-03-02T11:54:44;1.60;;;1.10;;
19219;SDS011;9744;49.364;7.484;2024-03-02T11:57:17;1.52;;;0.80;;
19219;SDS011;9744;49.364;7.484;2024-03-02T11:59:45;1.08;;;0.90;;
19219;SDS011;9744;49.364;7.484;2024-03-02T12:02:15;1.58;;;0.95;;
19219;SDS011;9744;49.364;7.484;2024-03-02T12:04:44;2.45;;;0.98;;
19219;SDS011;9744;49.364;7.484;2024-03-02T12:07:13;2.00;;;0.70;;
19219;SDS011;9744;49.364;7.484;2024-03-02T12:09:59;1.02;;;0.82;;
19219;SDS011;9744;49.364;7.484;2024-03-02T12:12:27;0.85;;;0.85;;
19219;SDS011;9744;49.364;7.484;2024-03-02T12:14:54;1.98;;;1.20;;
19219;SDS011;9744;49.364;7.484;2024-03-02T12:17:23;6.55;;;2.75;;
19219;SDS011;9744;49.364;7.484;2024-03-02T12:19:52;1.85;;;1.10;;
19219;SDS011;9744;49.364;7.484;2024-03-02T12:22:19;1.10;;;0.95;;
19219;SDS011;9744;49.364;7.484;2024-03-02T12:24:48;1.70;;;0.80;;
19219;SDS011;9744;49.364;7.484;2024-03-02T12:27:15;1.02;;;0.80;;
19219;SDS011;9744;49.364;7.484;2024-03-02T12:29:43;1.40;;;0.95;;
19219;SDS011;9744;49.364;7.484;2024-03-02T12:32:11;1.25;;;0.80;;
19219;SDS011;9744;49.364;7.484;2024-03-02T12:34:39;0.70;;;0.63;;
19219;SDS011;9744;49.364;7.484;2024-03-02T12:37:07;0.80;;;0.52;;
19219;SDS011;9744;49.364;7.484;2024-03-02T12:39:34;1.02;;;0.65;;
19219;SDS011;9744;49.364;7.484;2024-03-02T12:42:02;0.85;;;0.60;;
19219;SDS011;9744;49.364;7.484;2024-03-02T12:44:30;1.75;;;1.10;;
19219;SDS011;9744;49.364;7.484;2024-03-02T12:46:57;1.90;;;0.60;;
19219;SDS011;9744;49.364;7.484;2024-03-02T12:49:24;2.63;;;1.50;;
19219;SDS011;9744;49.364;7.484;2024-03-02T12:51:55;1.05;;;0.85;;
19219;SDS011;9744;49.364;7.484;2024-03-02T12:54:23;3.92;;;1.65;;
19219;SDS011;9744;49.364;7.484;2024-03-02T12:56:50;1.30;;;0.40;;
19219;SDS011;9744;49.364;7.484;2024-03-02T12:59:19;1.08;;;0.30;;
19219;SDS011;9744;49.364;7.484;2024-03-02T13:01:51;3.80;;;1.90;;
19219;SDS011;9744;49.364;7.484;2024-03-02T13:04:21;4.80;;;2.95;;
19219;SDS011;9744;49.364;7.484;2024-03-02T13:06:49;1.15;;;0.43;;
19219;SDS011;9744;49.364;7.484;2024-03-02T13:09:20;2.35;;;0.57;;
19219;SDS011;9744;49.364;7.484;2024-03-02T13:11:48;0.98;;;0.47;;
19219;SDS011;9744;49.364;7.484;2024-03-02T13:14:15;0.50;;;0.50;;
19219;SDS011;9744;49.364;7.484;2024-03-02T13:16:44;1.63;;;0.40;;
19219;SDS011;9744;49.364;7.484;2024-03-02T13:19:12;1.73;;;0.40;;
19219;SDS011;9744;49.364;7.484;2024-03-02T13:21:39;0.50;;;0.50;;
19219;SDS011;9744;49.364;7.484;2024-03-02T13:24:07;2.17;;;0.50;;
19219;SDS011;9744;49.364;7.484;2024-03-02T13:29:06;0.90;;;0.40;;
19219;SDS011;9744;49.364;7.484;2024-03-02T13:31:34;2.28;;;1.55;;
19219;SDS011;9744;49.364;7.484;2024-03-02T13:34:01;1.00;;;0.80;;
19219;SDS011;9744;49.364;7.484;2024-03-02T13:36:28;1.17;;;0.57;;
19219;SDS011;9744;49.364;7.484;2024-03-02T13:38:56;0.75;;;0.68;;
19219;SDS011;9744;49.364;7.484;2024-03-02T13:41:23;0.80;;;0.50;;
19219;SDS011;9744;49.364;7.484;2024-03-02T13:43:52;2.40;;;0.60;;
19219;SDS011;9744;49.364;7.484;2024-03-02T13:46:19;2.45;;;0.60;;
19219;SDS011;9744;49.364;7.484;2024-03-02T13:48:47;1.17;;;0.70;;
19219;SDS011;9744;49.364;7.484;2024-03-02T13:51:14;1.05;;;0.52;;
19219;SDS011;9744;49.364;7.484;2024-03-02T13:53:41;0.95;;;0.50;;
19219;SDS011;9744;49.364;7.484;2024-03-02T13:56:08;2.30;;;0.50;;
19219;SDS011;9744;49.364;7.484;2024-03-02T13:58:36;1.02;;;0.50;;
19219;SDS011;9744;49.364;7.484;2024-03-02T14:01:04;1.00;;;0.70;;
19219;SDS011;9744;49.364;7.484;2024-03-02T14:03:32;2.30;;;0.50;;
19219;SDS011;9744;49.364;7.484;2024-03-02T14:05:59;2.53;;;0.60;;
19219;SDS011;9744;49.364;7.484;2024-03-02T14:08:26;1.55;;;1.15;;
19219;SDS011;9744;49.364;7.484;2024-03-02T14:10:54;58.78;;;6.10;;
19219;SDS011;9744;49.364;7.484;2024-03-02T14:13:25;0.45;;;0.35;;
19219;SDS011;9744;49.364;7.484;2024-03-02T14:15:56;0.68;;;0.50;;
19219;SDS011;9744;49.364;7.484;2024-03-02T14:18:25;0.77;;;0.30;;
19219;SDS011;9744;49.364;7.484;2024-03-02T14:20:52;0.52;;;0.40;;
19219;SDS011;9744;49.364;7.484;2024-03-02T14:23:19;0.82;;;0.40;;
19219;SDS011;9744;49.364;7.484;2024-03-02T14:25:56;0.68;;;0.50;;
19219;SDS011;9744;49.364;7.484;2024-03-02T14:28:24;0.40;;;0.40;;
19219;SDS011;9744;49.364;7.484;2024-03-02T14:30:51;8.38;;;1.10;;
19219;SDS011;9744;49.364;7.484;2024-03-02T14:33:21;0.75;;;0.35;;
19219;SDS011;9744;49.364;7.484;2024-03-02T14:35:49;0.70;;;0.50;;
19219;SDS011;9744;49.364;7.484;2024-03-02T14:38:17;1.83;;;1.10;;
19219;SDS011;9744;49.364;7.484;2024-03-02T14:40:44;0.82;;;0.60;;
19219;SDS011;9744;49.364;7.484;2024-03-02T14:43:11;1.80;;;1.13;;
19219;SDS011;9744;49.364;7.484;2024-03-02T14:45:38;1.77;;;0.52;;
19219;SDS011;9744;49.364;7.484;2024-03-02T14:48:06;0.80;;;0.50;;
19219;SDS011;9744;49.364;7.484;2024-03-02T14:50:33;2.20;;;0.60;;
19219;SDS011;9744;49.364;7.484;2024-03-02T14:53:02;0.70;;;0.68;;
19219;SDS011;9744;49.364;7.484;2024-03-02T14:55:32;1.42;;;0.70;;
19219;SDS011;9744;49.364;7.484;2024-03-02T14:58:00;0.80;;;0.77;;
19219;SDS011;9744;49.364;7.484;2024-03-02T15:00:27;3.15;;;1.50;;
19219;SDS011;9744;49.364;7.484;2024-03-02T15:02:54;1.23;;;0.60;;
19219;SDS011;9744;49.364;7.484;2024-03-02T15:05:22;1.33;;;0.63;;
19219;SDS011;9744;49.364;7.484;2024-03-02T15:07:52;1.65;;;0.50;;
19219;SDS011;9744;49.364;7.484;2024-03-02T15:10:20;1.40;;;0.80;;
19219;SDS011;9744;49.364;7.484;2024-03-02T15:12:48;0.85;;;0.77;;
19219;SDS011;9744;49.364;7.484;2024-03-02T15:15:15;0.85;;;0.63;;
19219;SDS011;9744;49.364;7.484;2024-03-02T15:17:43;0.60;;;0.50;;
19219;SDS011;9744;49.364;7.484;2024-03-02T15:20:10;0.80;;;0.57;;
19219;SDS011;9744;49.364;7.484;2024-03-02T15:22:38;0.55;;;0.52;;
19219;SDS011;9744;49.364;7.484;2024-03-02T15:25:05;0.60;;;0.60;;
19219;SDS011;9744;49.364;7.484;2024-03-02T15:27:34;1.48;;;0.70;;
19219;SDS011;9744;49.364;7.484;2024-03-02T15:30:02;1.23;;;0.80;;